Wetterdaten: Mittwoch, 14.10.2015
Datum Zeit Auen-Temp. Temp gefhlt Luftfeuchte Luftdruck Regen Wind Richtung Richtung Taupunkt Windben
14.10.2015 00:00 6,6 C 6,2 C 92 % 1012,6 hPa 0,0 mm 8,5 km/h (2 Bft) W 270 5,4 C 6,5 km/h (2 Bft)
14.10.2015 00:05 6,5 C 6,1 C 92 % 1012,6 hPa 0,0 mm 8,0 km/h (2 Bft) W 270 5,3 C 16,1 km/h (3 Bft)
14.10.2015 00:10 6,5 C 6,1 C 92 % 1012,8 hPa 0,7 mm 8,3 km/h (2 Bft) NW 315 5,3 C 6,0 km/h (2 Bft)
14.10.2015 00:15 6,3 C 5,9 C 91 % 1012,8 hPa 0,0 mm 8,0 km/h (2 Bft) W-SW 247 4,9 C 22,3 km/h (4 Bft)
14.10.2015 00:20 6,1 C 5,8 C 91 % 1012,8 hPa 0,7 mm 7,5 km/h (2 Bft) SW 225 4,7 C 9,1 km/h (2 Bft)
14.10.2015 00:25 5,9 C 5,6 C 92 % 1012,8 hPa 0,0 mm 7,0 km/h (2 Bft) W 270 4,7 C 2,8 km/h (1 Bft)
14.10.2015 00:30 5,9 C 5,7 C 92 % 1013,1 hPa 0,7 mm 5,2 km/h (1 Bft) W-SW 247 4,7 C 2,8 km/h (1 Bft)
14.10.2015 00:35 5,8 C 5,7 C 92 % 1013,1 hPa 0,0 mm 4,1 km/h (1 Bft) W 270 4,6 C 7,5 km/h (2 Bft)
14.10.2015 00:40 5,8 C 5,6 C 92 % 1013,1 hPa 0,0 mm 5,4 km/h (1 Bft) W-SW 247 4,6 C 7,8 km/h (2 Bft)
14.10.2015 00:45 5,5 C 5,3 C 92 % 1013,1 hPa 0,7 mm 6,0 km/h (2 Bft) SW 225 4,3 C 9,3 km/h (2 Bft)
14.10.2015 00:50 5,4 C 5,1 C 92 % 1013,2 hPa 0,0 mm 6,7 km/h (2 Bft) W-NW 292 4,2 C 13,5 km/h (3 Bft)
14.10.2015 00:55 5,3 C 5,0 C 91 % 1013,2 hPa 0,0 mm 6,2 km/h (2 Bft) N-NW 337 4,0 C 6,2 km/h (2 Bft)
14.10.2015 01:00 5,2 C 4,9 C 91 % 1013,2 hPa 0,0 mm 6,2 km/h (2 Bft) SW 225 3,9 C 8,5 km/h (2 Bft)
14.10.2015 01:05 5,0 C 4,7 C 91 % 1013,2 hPa 0,0 mm 6,2 km/h (2 Bft) W-SW 247 3,7 C 11,4 km/h (2 Bft)
14.10.2015 01:10 4,8 C 4,5 C 91 % 1013,2 hPa 0,0 mm 6,0 km/h (2 Bft) O-SO 112 3,5 C 5,4 km/h (1 Bft)
14.10.2015 01:15 4,5 C 4,2 C 91 % 1013,2 hPa 0,7 mm 6,0 km/h (2 Bft) S-SW 202 3,2 C 17,1 km/h (3 Bft)
14.10.2015 01:20 4,4 C 3,9 C 91 % 1013,2 hPa 0,0 mm 7,3 km/h (2 Bft) W-SW 247 3,1 C 18,1 km/h (3 Bft)
14.10.2015 01:25 4,2 C 3,6 C 90 % 1013,2 hPa 0,0 mm 8,0 km/h (2 Bft) NW 315 2,7 C 14,5 km/h (3 Bft)
14.10.2015 01:30 4,0 C 3,3 C 90 % 1013,4 hPa 0,0 mm 9,8 km/h (2 Bft) W 270 2,5 C 15,5 km/h (3 Bft)
14.10.2015 01:35 3,8 C 3,1 C 90 % 1013,4 hPa 0,0 mm 9,6 km/h (2 Bft) NW 315 2,3 C 5,7 km/h (1 Bft)
14.10.2015 01:40 3,7 C 3,0 C 90 % 1013,4 hPa 0,0 mm 9,1 km/h (2 Bft) NW 315 2,2 C 20,5 km/h (4 Bft)
14.10.2015 01:45 3,4 C 2,7 C 89 % 1013,4 hPa 0,7 mm 9,1 km/h (2 Bft) W 270 1,8 C 13,7 km/h (3 Bft)
14.10.2015 01:50 3,4 C 2,7 C 89 % 1013,6 hPa 0,0 mm 8,5 km/h (2 Bft) N 360 1,8 C 24,6 km/h (4 Bft)
14.10.2015 01:55 3,3 C 2,8 C 89 % 1013,6 hPa 0,0 mm 6,5 km/h (2 Bft) S 180 1,7 C 4,9 km/h (1 Bft)
14.10.2015 02:00 3,2 C 2,7 C 89 % 1013,6 hPa 0,0 mm 6,7 km/h (2 Bft) W-NW 292 1,6 C 14,2 km/h (3 Bft)
14.10.2015 02:05 3,1 C 2,5 C 89 % 1013,6 hPa 0,0 mm 7,5 km/h (2 Bft) SO 135 1,5 C 8,3 km/h (2 Bft)
14.10.2015 02:10 3,0 C 2,4 C 90 % 1013,8 hPa 0,0 mm 7,8 km/h (2 Bft) W-SW 247 1,5 C 13,5 km/h (3 Bft)
14.10.2015 02:15 2,9 C 2,3 C 91 % 1013,8 hPa 0,7 mm 7,3 km/h (2 Bft) NW 315 1,6 C 16,3 km/h (3 Bft)
14.10.2015 02:20 2,8 C 2,2 C 91 % 1013,8 hPa 0,0 mm 7,3 km/h (2 Bft) SW 225 1,5 C 4,9 km/h (1 Bft)
14.10.2015 02:25 2,7 C 2,3 C 91 % 1013,8 hPa 0,0 mm 5,7 km/h (1 Bft) W-NW 292 1,4 C 8,5 km/h (2 Bft)
14.10.2015 02:31 2,7 C 2,3 C 91 % 1013,9 hPa 0,0 mm 4,9 km/h (1 Bft) SW 225 1,4 C 0,0 km/h (0 Bft)
14.10.2015 02:35 2,6 C 2,4 C 91 % 1013,9 hPa 0,7 mm 3,6 km/h (1 Bft) S 180 1,3 C 7,0 km/h (2 Bft)
14.10.2015 02:40 2,6 C 2,3 C 91 % 1013,9 hPa 0,0 mm 4,1 km/h (1 Bft) S-SO 157 1,3 C 8,0 km/h (2 Bft)
14.10.2015 02:45 2,5 C 2,3 C 89 % 1013,9 hPa 0,0 mm 4,1 km/h (1 Bft) W 270 0,9 C 0,0 km/h (0 Bft)
14.10.2015 02:50 2,5 C 2,3 C 89 % 1013,9 hPa 0,0 mm 2,6 km/h (1 Bft) W 270 0,9 C 7,0 km/h (2 Bft)
14.10.2015 02:55 2,5 C 2,3 C 91 % 1013,9 hPa 0,0 mm 1,8 km/h (1 Bft) S-SW 202 1,2 C 3,1 km/h (1 Bft)
14.10.2015 02:59 2,5 C 2,3 C 91 % 1013,9 hPa 0,0 mm 1,8 km/h (1 Bft) S-SW 202 1,2 C 3,1 km/h (1 Bft)
14.10.2015 03:00 2,5 C 2,2 C 91 % 1013,9 hPa 0,0 mm 2,8 km/h (1 Bft) W-SW 247 1,2 C 6,2 km/h (2 Bft)
14.10.2015 03:05 2,4 C 2,2 C 91 % 1013,9 hPa 0,0 mm 3,4 km/h (1 Bft) W-SW 247 1,1 C 8,0 km/h (2 Bft)
14.10.2015 03:10 2,4 C 2,2 C 91 % 1013,8 hPa 0,7 mm 2,8 km/h (1 Bft) W 270 1,1 C 0,0 km/h (0 Bft)
14.10.2015 03:15 2,3 C 2,1 C 91 % 1013,8 hPa 0,0 mm 1,6 km/h (1 Bft) W-NW 292 1,0 C 0,0 km/h (0 Bft)
14.10.2015 03:20 2,3 C 2,1 C 91 % 1013,8 hPa 0,0 mm 0,8 km/h (0 Bft) SW 225 1,0 C 0,0 km/h (0 Bft)
14.10.2015 03:24 2,3 C 2,1 C 92 % 1013,8 hPa 0,0 mm 0,3 km/h (0 Bft) NW 315 1,1 C 0,0 km/h (0 Bft)
14.10.2015 03:29 2,3 C 2,1 C 92 % 1013,7 hPa 0,7 mm 0,3 km/h (0 Bft) W 270 1,1 C 2,8 km/h (1 Bft)
14.10.2015 03:34 2,2 C 2,0 C 92 % 1013,7 hPa 0,0 mm 0,5 km/h (0 Bft) W-SW 247 1,0 C 5,7 km/h (1 Bft)
14.10.2015 03:36 2,2 C 2,0 C 92 % 1013,7 hPa 0,0 mm 0,5 km/h (0 Bft) W-SW 247 1,0 C 5,7 km/h (1 Bft)
14.10.2015 03:40 2,1 C 1,9 C 92 % 1013,7 hPa 0,0 mm 0,8 km/h (0 Bft) W-SW 247 0,9 C 0,0 km/h (0 Bft)
14.10.2015 03:45 2,0 C 1,8 C 92 % 1013,7 hPa 0,0 mm 1,6 km/h (1 Bft) W 270 0,8 C 0,0 km/h (0 Bft)
14.10.2015 03:50 1,9 C 1,7 C 92 % 1013,6 hPa 0,0 mm 2,1 km/h (1 Bft) SW 225 0,7 C 4,7 km/h (1 Bft)
14.10.2015 03:56 1,7 C 1,5 C 92 % 1013,6 hPa 0,7 mm 2,8 km/h (1 Bft) W-SW 247 0,5 C 0,0 km/h (0 Bft)
14.10.2015 04:00 1,7 C 1,5 C 92 % 1013,6 hPa 0,0 mm 3,4 km/h (1 Bft) SW 225 0,5 C 3,9 km/h (1 Bft)
14.10.2015 04:05 1,7 C 1,5 C 92 % 1013,6 hPa 0,0 mm 3,4 km/h (1 Bft) W-SW 247 0,5 C 10,1 km/h (2 Bft)
14.10.2015 04:10 1,8 C 1,5 C 92 % 1013,6 hPa 0,0 mm 4,1 km/h (1 Bft) S 180 0,6 C 6,2 km/h (2 Bft)
14.10.2015 04:15 1,8 C 1,2 C 92 % 1013,6 hPa 0,0 mm 6,5 km/h (2 Bft) W-SW 247 0,6 C 12,9 km/h (3 Bft)
14.10.2015 04:20 1,8 C 1,0 C 92 % 1013,6 hPa 0,0 mm 8,3 km/h (2 Bft) W-SW 247 0,6 C 19,9 km/h (4 Bft)
14.10.2015 04:25 1,9 C 1,0 C 92 % 1013,6 hPa 0,0 mm 9,6 km/h (2 Bft) W 270 0,7 C 19,2 km/h (3 Bft)
14.10.2015 04:30 1,8 C 1,1 C 89 % 1013,4 hPa 0,0 mm 8,5 km/h (2 Bft) W-SW 247 0,2 C 29,3 km/h (5 Bft)
14.10.2015 04:35 1,9 C 1,4 C 92 % 1013,4 hPa 0,7 mm 6,5 km/h (2 Bft) S 180 0,7 C 6,7 km/h (2 Bft)
14.10.2015 04:40 1,9 C 1,6 C 89 % 1013,4 hPa 0,0 mm 4,7 km/h (1 Bft) W-SW 247 0,3 C 4,9 km/h (1 Bft)
14.10.2015 04:45 1,9 C 1,7 C 89 % 1013,4 hPa 0,0 mm 4,4 km/h (1 Bft) W-SW 247 0,3 C 20,2 km/h (4 Bft)
14.10.2015 04:50 2,0 C 1,7 C 92 % 1013,6 hPa 0,0 mm 4,4 km/h (1 Bft) S 180 0,8 C 0,0 km/h (0 Bft)
14.10.2015 04:55 2,1 C 1,7 C 92 % 1013,6 hPa 0,0 mm 4,9 km/h (1 Bft) S-SW 202 0,9 C 0,0 km/h (0 Bft)
14.10.2015 05:01 2,1 C 1,8 C 92 % 1013,6 hPa 0,0 mm 4,1 km/h (1 Bft) W-SW 247 0,9 C 7,0 km/h (2 Bft)
14.10.2015 05:05 2,1 C 1,9 C 92 % 1013,6 hPa 0,0 mm 3,6 km/h (1 Bft) S 180 0,9 C 5,7 km/h (1 Bft)
14.10.2015 05:10 2,1 C 1,7 C 92 % 1013,6 hPa 0,0 mm 4,9 km/h (1 Bft) S-SO 157 0,9 C 4,4 km/h (1 Bft)
14.10.2015 05:15 2,1 C 1,8 C 92 % 1013,6 hPa 0,0 mm 4,1 km/h (1 Bft) SO 135 0,9 C 6,2 km/h (2 Bft)
14.10.2015 05:20 2,0 C 1,7 C 92 % 1013,6 hPa 0,0 mm 4,4 km/h (1 Bft) S-SW 202 0,8 C 9,1 km/h (2 Bft)
14.10.2015 05:25 1,9 C 1,7 C 89 % 1013,6 hPa 0,0 mm 4,7 km/h (1 Bft) W-SW 247 0,3 C 9,6 km/h (2 Bft)
14.10.2015 05:30 1,9 C 1,7 C 89 % 1013,4 hPa 0,0 mm 4,1 km/h (1 Bft) W-NW 292 0,3 C 3,4 km/h (1 Bft)
14.10.2015 05:35 1,9 C 1,7 C 89 % 1013,4 hPa 0,0 mm 3,6 km/h (1 Bft) W-SW 247 0,3 C 3,4 km/h (1 Bft)
14.10.2015 05:40 1,9 C 1,7 C 89 % 1013,4 hPa 0,0 mm 3,9 km/h (1 Bft) W-SW 247 0,3 C 3,1 km/h (1 Bft)
14.10.2015 05:45 1,9 C 1,7 C 89 % 1013,4 hPa 0,0 mm 3,4 km/h (1 Bft) W 270 0,3 C 0,0 km/h (0 Bft)
14.10.2015 05:50 1,9 C 1,7 C 89 % 1013,1 hPa 0,0 mm 3,1 km/h (1 Bft) N-NW 337 0,3 C 4,1 km/h (1 Bft)
14.10.2015 05:55 2,0 C 1,6 C 92 % 1013,1 hPa 0,0 mm 4,9 km/h (1 Bft) S 180 0,8 C 6,7 km/h (2 Bft)
14.10.2015 06:00 2,1 C 1,6 C 92 % 1013,1 hPa 0,0 mm 6,0 km/h (2 Bft) S-SW 202 0,9 C 14,0 km/h (3 Bft)
14.10.2015 06:05 2,1 C 1,8 C 92 % 1013,1 hPa 0,0 mm 4,4 km/h (1 Bft) SW 225 0,9 C 3,4 km/h (1 Bft)
14.10.2015 06:10 2,1 C 1,9 C 92 % 1013,1 hPa 0,0 mm 3,4 km/h (1 Bft) W-SW 247 0,9 C 0,0 km/h (0 Bft)
14.10.2015 06:15 2,2 C 1,9 C 92 % 1013,1 hPa 0,0 mm 1,3 km/h (1 Bft) O-SO 112 1,0 C 0,0 km/h (0 Bft)
14.10.2015 06:20 2,2 C 1,9 C 92 % 1013,1 hPa 0,0 mm 0,5 km/h (0 Bft) W-SW 247 1,0 C 0,0 km/h (0 Bft)
14.10.2015 06:25 2,2 C 2,0 C 92 % 1013,1 hPa 0,0 mm 0,8 km/h (0 Bft) S 180 1,0 C 0,0 km/h (0 Bft)
14.10.2015 06:30 2,2 C 2,0 C 92 % 1013,2 hPa 0,0 mm 0,3 km/h (0 Bft) W 270 1,0 C 0,0 km/h (0 Bft)
14.10.2015 06:35 2,3 C 2,0 C 92 % 1013,2 hPa 0,0 mm 0,0 km/h (0 Bft) SW 225 1,1 C 0,0 km/h (0 Bft)
14.10.2015 06:40 2,3 C 2,1 C 92 % 1013,2 hPa 0,0 mm 0,3 km/h (0 Bft) S 180 1,1 C 2,8 km/h (1 Bft)
14.10.2015 06:45 2,3 C 2,1 C 92 % 1013,2 hPa 0,0 mm 2,1 km/h (1 Bft) S 180 1,1 C 0,0 km/h (0 Bft)
14.10.2015 06:50 2,3 C 2,2 C 89 % 1013,1 hPa 0,0 mm 2,3 km/h (1 Bft) SW 225 0,7 C 0,0 km/h (0 Bft)
14.10.2015 06:55 2,4 C 2,2 C 93 % 1013,1 hPa 0,0 mm 1,6 km/h (1 Bft) S-SO 157 1,4 C 0,0 km/h (0 Bft)
14.10.2015 07:00 2,4 C 2,2 C 93 % 1013,1 hPa 0,0 mm 0,8 km/h (0 Bft) S 180 1,4 C 0,0 km/h (0 Bft)
14.10.2015 07:05 2,3 C 2,2 C 89 % 1013,1 hPa 0,0 mm 0,0 km/h (0 Bft) SW 225 0,7 C 0,0 km/h (0 Bft)
14.10.2015 07:10 2,3 C 2,2 C 89 % 1013,2 hPa 0,0 mm 0,3 km/h (0 Bft) S 180 0,7 C 3,6 km/h (1 Bft)
14.10.2015 07:15 2,3 C 2,2 C 89 % 1013,2 hPa 0,0 mm 1,3 km/h (1 Bft) S 180 0,7 C 3,1 km/h (1 Bft)
14.10.2015 07:20 2,3 C 2,1 C 89 % 1013,2 hPa 0,0 mm 1,3 km/h (1 Bft) S-SO 157 0,7 C 0,0 km/h (0 Bft)
14.10.2015 07:25 2,3 C 2,1 C 93 % 1013,2 hPa 0,0 mm 0,8 km/h (0 Bft) SW 225 1,3 C 2,6 km/h (1 Bft)
14.10.2015 07:30 2,3 C 2,1 C 93 % 1013,1 hPa 0,0 mm 1,6 km/h (1 Bft) SW 225 1,3 C 3,9 km/h (1 Bft)
14.10.2015 07:35 2,2 C 2,0 C 89 % 1013,1 hPa 0,0 mm 1,6 km/h (1 Bft) S 180 0,6 C 0,0 km/h (0 Bft)
14.10.2015 07:40 2,2 C 2,0 C 89 % 1013,1 hPa 0,0 mm 0,5 km/h (0 Bft) S-SO 157 0,6 C 0,0 km/h (0 Bft)
14.10.2015 07:45 2,2 C 2,0 C 93 % 1013,1 hPa 0,0 mm 0,8 km/h (0 Bft) S 180 1,2 C 2,8 km/h (1 Bft)
14.10.2015 07:50 2,2 C 2,0 C 89 % 1013,2 hPa 0,0 mm 1,6 km/h (1 Bft) S-SO 157 0,6 C 4,7 km/h (1 Bft)
14.10.2015 07:55 2,2 C 2,0 C 89 % 1013,2 hPa 0,0 mm 1,6 km/h (1 Bft) SO 135 0,6 C 3,4 km/h (1 Bft)
14.10.2015 08:00 2,2 C 2,1 C 89 % 1013,2 hPa 0,0 mm 0,8 km/h (0 Bft) S-SO 157 0,6 C 0,0 km/h (0 Bft)
14.10.2015 08:05 2,2 C 2,1 C 89 % 1013,2 hPa 0,0 mm 0,3 km/h (0 Bft) S 180 0,6 C 0,0 km/h (0 Bft)
14.10.2015 08:10 2,2 C 2,1 C 89 % 1013,2 hPa 0,0 mm 0,3 km/h (0 Bft) S-SO 157 0,6 C 0,0 km/h (0 Bft)
14.10.2015 08:15 2,2 C 2,1 C 89 % 1013,2 hPa 0,0 mm 0,3 km/h (0 Bft) SO 135 0,6 C 0,0 km/h (0 Bft)
14.10.2015 08:20 2,2 C 2,1 C 89 % 1013,2 hPa 0,0 mm 0,0 km/h (0 Bft) S 180 0,6 C 0,0 km/h (0 Bft)
14.10.2015 08:25 2,2 C 2,1 C 89 % 1013,2 hPa 0,0 mm 1,3 km/h (1 Bft) SO 135 0,6 C 3,1 km/h (1 Bft)
14.10.2015 08:30 2,2 C 2,1 C 89 % 1013,4 hPa 0,0 mm 2,1 km/h (1 Bft) S-SO 157 0,6 C 3,1 km/h (1 Bft)
14.10.2015 08:35 2,2 C 2,1 C 89 % 1013,4 hPa 0,0 mm 1,6 km/h (1 Bft) S-SO 157 0,6 C 0,0 km/h (0 Bft)
14.10.2015 08:40 2,2 C 2,1 C 89 % 1013,4 hPa 0,0 mm 0,8 km/h (0 Bft) SW 225 0,6 C 0,0 km/h (0 Bft)
14.10.2015 08:45 2,3 C 2,3 C 89 % 1013,4 hPa 0,0 mm 0,0 km/h (0 Bft) S-SW 202 0,7 C 0,0 km/h (0 Bft)
14.10.2015 08:50 2,3 C 2,3 C 89 % 1013,3 hPa 0,0 mm 0,0 km/h (0 Bft) S-SO 157 0,7 C 0,0 km/h (0 Bft)
14.10.2015 08:55 2,4 C 2,5 C 89 % 1013,3 hPa 0,0 mm 0,0 km/h (0 Bft) O-SO 112 0,8 C 2,6 km/h (1 Bft)
14.10.2015 08:59 2,5 C 2,6 C 89 % 1013,3 hPa 0,0 mm 0,0 km/h (0 Bft) SO 135 0,9 C 0,0 km/h (0 Bft)
14.10.2015 09:00 2,5 C 2,6 C 89 % 1013,3 hPa 0,0 mm 0,0 km/h (0 Bft) SO 135 0,9 C 0,0 km/h (0 Bft)
14.10.2015 09:05 2,7 C 2,9 C 89 % 1013,3 hPa 0,0 mm 0,0 km/h (0 Bft) SW 225 1,1 C 0,0 km/h (0 Bft)
14.10.2015 09:10 2,9 C 3,2 C 89 % 1013,6 hPa 0,0 mm 0,0 km/h (0 Bft) N-NW 337 1,3 C 0,0 km/h (0 Bft)
14.10.2015 09:15 3,0 C 3,4 C 89 % 1013,6 hPa 0,0 mm 0,0 km/h (0 Bft) W 270 1,4 C 0,0 km/h (0 Bft)
14.10.2015 09:20 3,1 C 3,4 C 89 % 1013,6 hPa 0,0 mm 0,0 km/h (0 Bft) W-NW 292 1,5 C 0,0 km/h (0 Bft)
14.10.2015 09:25 3,2 C 3,5 C 89 % 1013,6 hPa 0,0 mm 0,0 km/h (0 Bft) S 180 1,6 C 3,1 km/h (1 Bft)
14.10.2015 09:30 3,2 C 3,4 C 89 % 1013,5 hPa 0,0 mm 0,3 km/h (0 Bft) SO 135 1,6 C 0,0 km/h (0 Bft)
14.10.2015 09:35 3,3 C 3,5 C 89 % 1013,5 hPa 0,0 mm 0,3 km/h (0 Bft) S 180 1,7 C 0,0 km/h (0 Bft)
14.10.2015 09:40 3,2 C 3,3 C 89 % 1013,5 hPa 0,0 mm 0,3 km/h (0 Bft) S-SO 157 1,6 C 0,0 km/h (0 Bft)
14.10.2015 09:45 3,2 C 3,3 C 89 % 1013,5 hPa 0,0 mm 0,3 km/h (0 Bft) SO 135 1,6 C 0,0 km/h (0 Bft)
14.10.2015 09:50 3,2 C 3,3 C 89 % 1013,7 hPa 0,0 mm 0,0 km/h (0 Bft) SO 135 1,6 C 0,0 km/h (0 Bft)
14.10.2015 09:55 3,2 C 3,3 C 89 % 1013,7 hPa 0,0 mm 0,0 km/h (0 Bft) SO 135 1,6 C 0,0 km/h (0 Bft)
14.10.2015 10:00 3,2 C 3,4 C 89 % 1013,7 hPa 0,0 mm 0,0 km/h (0 Bft) SO 135 1,6 C 0,0 km/h (0 Bft)
14.10.2015 10:05 3,5 C 4,0 C 89 % 1013,7 hPa 0,0 mm 0,0 km/h (0 Bft) SO 135 1,9 C 0,0 km/h (0 Bft)
14.10.2015 10:10 3,7 C 4,4 C 89 % 1013,7 hPa 0,0 mm 0,0 km/h (0 Bft) SO 135 2,1 C 0,0 km/h (0 Bft)
14.10.2015 10:14 3,8 C 5,3 C 89 % 1013,7 hPa 0,0 mm 0,0 km/h (0 Bft) SO 135 2,2 C 0,0 km/h (0 Bft)
14.10.2015 10:19 4,0 C 5,7 C 88 % 1013,7 hPa 0,0 mm 0,3 km/h (0 Bft) NW 315 2,2 C 0,0 km/h (0 Bft)
14.10.2015 10:24 4,2 C 5,9 C 88 % 1013,7 hPa 0,0 mm 0,8 km/h (0 Bft) S-SW 202 2,4 C 0,0 km/h (0 Bft)
14.10.2015 10:26 4,2 C 5,9 C 88 % 1013,7 hPa 0,0 mm 0,8 km/h (0 Bft) S-SW 202 2,4 C 0,0 km/h (0 Bft)
14.10.2015 10:30 4,3 C 6,1 C 88 % 1013,4 hPa 0,0 mm 0,8 km/h (0 Bft) S 180 2,5 C 0,0 km/h (0 Bft)
14.10.2015 10:35 4,4 C 6,4 C 88 % 1013,4 hPa 0,0 mm 0,5 km/h (0 Bft) W 270 2,6 C 3,9 km/h (1 Bft)
14.10.2015 10:40 4,6 C 6,5 C 88 % 1013,4 hPa 0,0 mm 1,0 km/h (0 Bft) N-NW 337 2,8 C 2,8 km/h (1 Bft)
14.10.2015 10:45 4,8 C 6,6 C 88 % 1013,4 hPa 0,0 mm 1,3 km/h (1 Bft) W-SW 247 3,0 C 0,0 km/h (0 Bft)
14.10.2015 10:50 4,8 C 6,7 C 88 % 1013,6 hPa 0,0 mm 1,6 km/h (1 Bft) NW 315 3,0 C 5,7 km/h (1 Bft)
14.10.2015 10:55 4,8 C 6,7 C 88 % 1013,6 hPa 0,0 mm 2,3 km/h (1 Bft) S 180 3,0 C 0,0 km/h (0 Bft)
14.10.2015 11:01 5,0 C 6,8 C 87 % 1013,6 hPa 0,0 mm 1,6 km/h (1 Bft) SO 135 3,0 C 0,0 km/h (0 Bft)
14.10.2015 11:05 5,1 C 7,2 C 87 % 1013,6 hPa 0,0 mm 0,3 km/h (0 Bft) W-SW 247 3,1 C 0,0 km/h (0 Bft)
14.10.2015 11:10 5,1 C 7,4 C 87 % 1013,6 hPa 0,0 mm 0,5 km/h (0 Bft) SO 135 3,1 C 0,0 km/h (0 Bft)
14.10.2015 11:15 5,2 C 7,6 C 87 % 1013,6 hPa 0,0 mm 1,0 km/h (0 Bft) N-NW 337 3,2 C 0,0 km/h (0 Bft)
14.10.2015 11:20 5,3 C 7,8 C 86 % 1013,6 hPa 0,0 mm 0,8 km/h (0 Bft) SW 225 3,2 C 0,0 km/h (0 Bft)
14.10.2015 11:25 5,5 C 8,3 C 86 % 1013,6 hPa 0,0 mm 0,0 km/h (0 Bft) N-NO 22 3,3 C 0,0 km/h (0 Bft)
14.10.2015 11:31 5,6 C 8,5 C 86 % 1013,6 hPa 0,0 mm 0,5 km/h (0 Bft) SW 225 3,4 C 0,0 km/h (0 Bft)
14.10.2015 11:35 5,6 C 8,8 C 86 % 1013,6 hPa 0,0 mm 1,0 km/h (0 Bft) SW 225 3,4 C 3,9 km/h (1 Bft)
14.10.2015 11:40 5,6 C 8,8 C 85 % 1013,6 hPa 0,0 mm 1,0 km/h (0 Bft) SW 225 3,3 C 4,1 km/h (1 Bft)
14.10.2015 11:46 5,7 C 9,2 C 85 % 1013,6 hPa 0,0 mm 1,0 km/h (0 Bft) O-NO 67 3,4 C 2,6 km/h (1 Bft)
14.10.2015 11:50 5,9 C 9,2 C 84 % 1013,6 hPa 0,0 mm 1,3 km/h (1 Bft) O-NO 67 3,4 C 3,6 km/h (1 Bft)
14.10.2015 11:55 5,9 C 9,2 C 84 % 1013,6 hPa 0,0 mm 1,3 km/h (1 Bft) N-NW 337 3,4 C 3,1 km/h (1 Bft)
14.10.2015 12:00 5,9 C 9,2 C 83 % 1013,6 hPa 0,0 mm 1,6 km/h (1 Bft) NW 315 3,2 C 2,8 km/h (1 Bft)
14.10.2015 12:06 6,0 C 9,0 C 81 % 1013,6 hPa 0,0 mm 2,3 km/h (1 Bft) N 360 3,0 C 6,7 km/h (2 Bft)
14.10.2015 12:10 6,0 C 8,8 C 81 % 1013,5 hPa 0,0 mm 2,8 km/h (1 Bft) O-NO 67 3,0 C 3,9 km/h (1 Bft)
14.10.2015 12:15 5,9 C 8,7 C 81 % 1013,5 hPa 0,0 mm 2,3 km/h (1 Bft) NO 45 2,9 C 0,0 km/h (0 Bft)
14.10.2015 12:20 6,0 C 8,8 C 80 % 1013,5 hPa 0,0 mm 1,8 km/h (1 Bft) O-NO 67 2,8 C 8,8 km/h (2 Bft)
14.10.2015 12:25 6,1 C 8,8 C 79 % 1013,5 hPa 0,0 mm 3,1 km/h (1 Bft) NW 315 2,7 C 4,4 km/h (1 Bft)
14.10.2015 12:30 6,2 C 8,8 C 79 % 1013,4 hPa 0,0 mm 2,6 km/h (1 Bft) N-NO 22 2,8 C 0,0 km/h (0 Bft)
14.10.2015 12:35 6,1 C 8,9 C 78 % 1013,4 hPa 0,0 mm 1,0 km/h (0 Bft) NW 315 2,6 C 4,1 km/h (1 Bft)
14.10.2015 12:40 6,1 C 8,8 C 78 % 1013,4 hPa 0,0 mm 1,6 km/h (1 Bft) N-NW 337 2,6 C 0,0 km/h (0 Bft)
14.10.2015 12:45 6,1 C 8,7 C 77 % 1013,4 hPa 0,0 mm 1,3 km/h (1 Bft) O 90 2,4 C 0,0 km/h (0 Bft)
14.10.2015 12:50 6,0 C 8,7 C 77 % 1013,7 hPa 0,0 mm 0,5 km/h (0 Bft) NO 45 2,3 C 0,0 km/h (0 Bft)
14.10.2015 12:55 6,0 C 8,5 C 76 % 1013,7 hPa 0,0 mm 0,8 km/h (0 Bft) O-NO 67 2,1 C 0,0 km/h (0 Bft)
14.10.2015 13:00 6,0 C 8,4 C 76 % 1013,7 hPa 0,0 mm 0,5 km/h (0 Bft) N-NO 22 2,1 C 0,0 km/h (0 Bft)
14.10.2015 13:05 6,1 C 8,3 C 76 % 1013,7 hPa 0,0 mm 0,5 km/h (0 Bft) N-NO 22 2,2 C 0,0 km/h (0 Bft)
14.10.2015 13:10 6,2 C 8,4 C 76 % 1013,6 hPa 0,0 mm 0,3 km/h (0 Bft) NO 45 2,3 C 0,0 km/h (0 Bft)
14.10.2015 13:15 6,3 C 8,8 C 75 % 1013,6 hPa 0,0 mm 0,0 km/h (0 Bft) O-SO 112 2,2 C 0,0 km/h (0 Bft)
14.10.2015 13:20 6,4 C 9,3 C 75 % 1013,6 hPa 0,0 mm 0,0 km/h (0 Bft) O-NO 67 2,3 C 0,0 km/h (0 Bft)
14.10.2015 13:25 6,3 C 9,5 C 75 % 1013,6 hPa 0,0 mm 0,5 km/h (0 Bft) SO 135 2,2 C 0,0 km/h (0 Bft)
14.10.2015 13:30 6,2 C 9,3 C 74 % 1013,3 hPa 0,0 mm 0,5 km/h (0 Bft) N-NO 22 1,9 C 4,9 km/h (1 Bft)
14.10.2015 13:35 6,3 C 9,1 C 73 % 1013,3 hPa 0,0 mm 0,8 km/h (0 Bft) NO 45 1,8 C 4,1 km/h (1 Bft)
14.10.2015 13:40 6,3 C 8,8 C 73 % 1013,3 hPa 0,0 mm 1,3 km/h (1 Bft) O-NO 67 1,8 C 6,5 km/h (2 Bft)
14.10.2015 13:45 6,1 C 8,5 C 74 % 1013,3 hPa 0,0 mm 1,6 km/h (1 Bft) NO 45 1,8 C 0,0 km/h (0 Bft)
14.10.2015 13:50 6,1 C 8,4 C 75 % 1013,2 hPa 0,0 mm 1,8 km/h (1 Bft) O-NO 67 2,0 C 3,1 km/h (1 Bft)
14.10.2015 13:55 6,1 C 8,2 C 75 % 1013,2 hPa 0,0 mm 2,6 km/h (1 Bft) O-SO 112 2,0 C 0,0 km/h (0 Bft)
14.10.2015 14:00 6,2 C 8,3 C 75 % 1013,2 hPa 0,0 mm 2,6 km/h (1 Bft) W 270 2,1 C 5,7 km/h (1 Bft)
14.10.2015 14:05 6,2 C 8,3 C 75 % 1013,2 hPa 0,0 mm 4,1 km/h (1 Bft) NO 45 2,1 C 12,7 km/h (3 Bft)
14.10.2015 14:10 6,1 C 8,3 C 75 % 1013,1 hPa 0,0 mm 5,4 km/h (1 Bft) O-SO 112 2,0 C 0,0 km/h (0 Bft)
14.10.2015 14:15 6,1 C 8,3 C 75 % 1013,1 hPa 0,0 mm 4,1 km/h (1 Bft) NO 45 2,0 C 8,0 km/h (2 Bft)
14.10.2015 14:20 6,0 C 8,2 C 75 % 1013,1 hPa 0,0 mm 3,9 km/h (1 Bft) NO 45 1,9 C 7,3 km/h (2 Bft)
14.10.2015 14:25 6,0 C 7,7 C 75 % 1013,1 hPa 0,0 mm 4,1 km/h (1 Bft) O-NO 67 1,9 C 3,6 km/h (1 Bft)
14.10.2015 14:30 6,0 C 7,4 C 75 % 1013,1 hPa 0,0 mm 4,1 km/h (1 Bft) O-NO 67 1,9 C 6,2 km/h (2 Bft)
14.10.2015 14:35 6,0 C 7,4 C 75 % 1013,1 hPa 0,0 mm 4,4 km/h (1 Bft) O-NO 67 1,9 C 0,0 km/h (0 Bft)
14.10.2015 14:40 6,0 C 7,4 C 75 % 1013,1 hPa 0,0 mm 4,7 km/h (1 Bft) N-NO 22 1,9 C 8,8 km/h (2 Bft)
14.10.2015 14:45 6,0 C 7,2 C 75 % 1013,1 hPa 0,0 mm 4,4 km/h (1 Bft) O-NO 67 1,9 C 2,8 km/h (1 Bft)
14.10.2015 14:50 6,0 C 7,2 C 75 % 1013,0 hPa 0,0 mm 3,9 km/h (1 Bft) N-NO 22 1,9 C 0,0 km/h (0 Bft)
14.10.2015 14:55 5,9 C 7,1 C 75 % 1013,0 hPa 0,0 mm 3,4 km/h (1 Bft) O-SO 112 1,8 C 4,7 km/h (1 Bft)
14.10.2015 14:59 6,0 C 7,1 C 74 % 1013,0 hPa 0,0 mm 2,6 km/h (1 Bft) O-NO 67 1,7 C 0,0 km/h (0 Bft)
14.10.2015 15:01 6,0 C 7,1 C 74 % 1013,0 hPa 0,0 mm 2,6 km/h (1 Bft) O-NO 67 1,7 C 0,0 km/h (0 Bft)
14.10.2015 15:05 6,1 C 7,4 C 75 % 1013,0 hPa 0,0 mm 2,6 km/h (1 Bft) O-NO 67 2,0 C 7,8 km/h (2 Bft)
14.10.2015 15:10 6,1 C 7,2 C 75 % 1012,9 hPa 0,0 mm 4,4 km/h (1 Bft) NO 45 2,0 C 3,6 km/h (1 Bft)
14.10.2015 15:15 6,0 C 6,8 C 74 % 1012,9 hPa 0,0 mm 6,5 km/h (2 Bft) NO 45 1,7 C 9,3 km/h (2 Bft)
14.10.2015 15:20 6,0 C 6,8 C 74 % 1012,9 hPa 0,0 mm 6,2 km/h (2 Bft) O-NO 67 1,7 C 7,3 km/h (2 Bft)
14.10.2015 15:25 5,9 C 6,8 C 76 % 1012,9 hPa 0,0 mm 5,2 km/h (1 Bft) SO 135 2,0 C 6,2 km/h (2 Bft)
14.10.2015 15:30 5,9 C 6,7 C 76 % 1012,8 hPa 0,0 mm 4,4 km/h (1 Bft) O-NO 67 2,0 C 4,4 km/h (1 Bft)
14.10.2015 15:35 5,8 C 6,3 C 76 % 1012,8 hPa 0,0 mm 5,7 km/h (1 Bft) O-NO 67 1,9 C 8,3 km/h (2 Bft)
14.10.2015 15:40 5,7 C 5,8 C 76 % 1012,8 hPa 0,0 mm 6,5 km/h (2 Bft) NO 45 1,8 C 12,7 km/h (3 Bft)
14.10.2015 15:45 5,5 C 5,5 C 77 % 1012,8 hPa 0,0 mm 6,7 km/h (2 Bft) O 90 1,8 C 7,0 km/h (2 Bft)
14.10.2015 15:50 5,5 C 5,5 C 77 % 1012,7 hPa 0,0 mm 6,7 km/h (2 Bft) N-NO 22 1,8 C 9,3 km/h (2 Bft)
14.10.2015 15:55 5,5 C 5,5 C 77 % 1012,7 hPa 0,0 mm 6,0 km/h (2 Bft) NO 45 1,8 C 6,2 km/h (2 Bft)
14.10.2015 16:00 5,5 C 5,7 C 78 % 1012,7 hPa 0,0 mm 5,2 km/h (1 Bft) N-NO 22 2,0 C 4,7 km/h (1 Bft)
14.10.2015 16:05 5,5 C 5,7 C 78 % 1012,7 hPa 0,0 mm 3,9 km/h (1 Bft) O-SO 112 2,0 C 2,6 km/h (1 Bft)
14.10.2015 16:10 5,5 C 5,7 C 78 % 1012,8 hPa 0,0 mm 3,9 km/h (1 Bft) N-NO 22 2,0 C 10,6 km/h (2 Bft)
14.10.2015 16:15 5,4 C 5,7 C 78 % 1012,8 hPa 0,0 mm 3,9 km/h (1 Bft) O-NO 67 1,9 C 3,4 km/h (1 Bft)
14.10.2015 16:20 5,4 C 5,7 C 78 % 1012,8 hPa 0,0 mm 4,1 km/h (1 Bft) O 90 1,9 C 3,6 km/h (1 Bft)
14.10.2015 16:25 5,4 C 5,7 C 78 % 1012,8 hPa 0,0 mm 2,8 km/h (1 Bft) O-NO 67 1,9 C 6,7 km/h (2 Bft)
14.10.2015 16:30 5,4 C 5,7 C 78 % 1012,7 hPa 0,0 mm 3,1 km/h (1 Bft) O-NO 67 1,9 C 5,4 km/h (1 Bft)
14.10.2015 16:35 5,4 C 5,7 C 78 % 1012,7 hPa 0,0 mm 3,9 km/h (1 Bft) O-NO 67 1,9 C 2,6 km/h (1 Bft)
14.10.2015 16:40 5,4 C 5,7 C 78 % 1012,7 hPa 0,0 mm 4,4 km/h (1 Bft) O-NO 67 1,9 C 5,2 km/h (1 Bft)
14.10.2015 16:45 5,5 C 5,7 C 78 % 1012,7 hPa 0,0 mm 3,4 km/h (1 Bft) O-NO 67 2,0 C 7,5 km/h (2 Bft)
14.10.2015 16:50 5,5 C 5,7 C 78 % 1012,4 hPa 0,0 mm 2,3 km/h (1 Bft) N-NO 22 2,0 C 3,4 km/h (1 Bft)
14.10.2015 16:55 5,4 C 5,7 C 78 % 1012,4 hPa 0,0 mm 3,4 km/h (1 Bft) S-SO 157 1,9 C 2,8 km/h (1 Bft)
14.10.2015 17:00 5,4 C 5,7 C 78 % 1012,4 hPa 0,0 mm 3,1 km/h (1 Bft) NO 45 1,9 C 5,2 km/h (1 Bft)
14.10.2015 17:05 5,4 C 5,6 C 78 % 1012,4 hPa 0,0 mm 1,8 km/h (1 Bft) O-NO 67 1,9 C 2,8 km/h (1 Bft)
14.10.2015 17:10 5,4 C 5,5 C 78 % 1012,1 hPa 0,0 mm 2,1 km/h (1 Bft) N-NO 22 1,9 C 10,1 km/h (2 Bft)
14.10.2015 17:15 5,2 C 5,3 C 78 % 1012,1 hPa 0,0 mm 3,9 km/h (1 Bft) N-NO 22 1,7 C 7,0 km/h (2 Bft)
14.10.2015 17:20 5,2 C 5,2 C 78 % 1012,1 hPa 0,0 mm 4,7 km/h (1 Bft) O-SO 112 1,7 C 5,2 km/h (1 Bft)
14.10.2015 17:25 5,1 C 5,1 C 78 % 1012,1 hPa 0,0 mm 3,1 km/h (1 Bft) O-SO 112 1,6 C 0,0 km/h (0 Bft)
14.10.2015 17:30 5,1 C 5,1 C 78 % 1012,3 hPa 0,0 mm 2,3 km/h (1 Bft) O-NO 67 1,6 C 3,6 km/h (1 Bft)
14.10.2015 17:35 5,0 C 4,9 C 78 % 1012,3 hPa 0,0 mm 1,6 km/h (1 Bft) N-NO 22 1,5 C 0,0 km/h (0 Bft)
14.10.2015 17:40 5,0 C 4,9 C 78 % 1012,3 hPa 0,0 mm 1,3 km/h (1 Bft) S-SO 157 1,5 C 0,0 km/h (0 Bft)
14.10.2015 17:45 4,8 C 4,9 C 78 % 1012,3 hPa 0,0 mm 1,0 km/h (0 Bft) O-SO 112 1,3 C 0,0 km/h (0 Bft)
14.10.2015 17:50 4,8 C 4,8 C 79 % 1012,3 hPa 0,0 mm 1,0 km/h (0 Bft) NO 45 1,5 C 0,0 km/h (0 Bft)
14.10.2015 17:55 4,8 C 4,7 C 79 % 1012,3 hPa 0,0 mm 0,5 km/h (0 Bft) SO 135 1,5 C 0,0 km/h (0 Bft)
14.10.2015 18:00 4,8 C 4,7 C 79 % 1012,3 hPa 0,0 mm 0,0 km/h (0 Bft) SO 135 1,5 C 0,0 km/h (0 Bft)
14.10.2015 18:05 4,6 C 4,6 C 79 % 1012,3 hPa 0,0 mm 0,0 km/h (0 Bft) S-SO 157 1,3 C 0,0 km/h (0 Bft)
14.10.2015 18:10 4,5 C 4,5 C 79 % 1012,8 hPa 0,0 mm 0,0 km/h (0 Bft) SO 135 1,2 C 0,0 km/h (0 Bft)
14.10.2015 18:15 4,5 C 4,5 C 79 % 1012,8 hPa 0,0 mm 0,0 km/h (0 Bft) S 180 1,2 C 0,0 km/h (0 Bft)
14.10.2015 18:20 4,5 C 4,5 C 80 % 1012,8 hPa 0,0 mm 0,0 km/h (0 Bft) S 180 1,4 C 0,0 km/h (0 Bft)
14.10.2015 18:25 4,5 C 4,5 C 80 % 1012,8 hPa 0,0 mm 0,0 km/h (0 Bft) SO 135 1,4 C 0,0 km/h (0 Bft)
14.10.2015 18:30 4,4 C 4,4 C 80 % 1012,6 hPa 0,0 mm 0,0 km/h (0 Bft) SO 135 1,3 C 0,0 km/h (0 Bft)
14.10.2015 18:35 4,4 C 4,4 C 80 % 1012,6 hPa 0,0 mm 0,0 km/h (0 Bft) SO 135 1,3 C 0,0 km/h (0 Bft)
14.10.2015 18:40 4,4 C 4,3 C 81 % 1012,6 hPa 0,0 mm 0,0 km/h (0 Bft) O-SO 112 1,4 C 0,0 km/h (0 Bft)
14.10.2015 18:45 4,3 C 4,3 C 81 % 1012,6 hPa 0,0 mm 0,3 km/h (0 Bft) S-SO 157 1,3 C 0,0 km/h (0 Bft)
14.10.2015 18:50 4,3 C 4,3 C 81 % 1012,8 hPa 0,0 mm 0,3 km/h (0 Bft) O-SO 112 1,3 C 0,0 km/h (0 Bft)
14.10.2015 18:55 4,3 C 4,3 C 81 % 1012,8 hPa 0,0 mm 0,0 km/h (0 Bft) S-SW 202 1,3 C 0,0 km/h (0 Bft)
14.10.2015 19:00 4,3 C 4,3 C 81 % 1012,8 hPa 0,0 mm 0,0 km/h (0 Bft) O 90 1,3 C 0,0 km/h (0 Bft)
14.10.2015 19:05 4,3 C 4,2 C 82 % 1012,8 hPa 0,0 mm 0,3 km/h (0 Bft) N-NO 22 1,5 C 0,0 km/h (0 Bft)
14.10.2015 19:10 4,3 C 4,2 C 82 % 1012,6 hPa 0,0 mm 0,5 km/h (0 Bft) O-NO 67 1,5 C 2,6 km/h (1 Bft)
14.10.2015 19:15 4,3 C 4,1 C 83 % 1012,6 hPa 0,0 mm 0,3 km/h (0 Bft) N-NO 22 1,7 C 0,0 km/h (0 Bft)
14.10.2015 19:20 4,3 C 4,1 C 83 % 1012,6 hPa 0,0 mm 0,3 km/h (0 Bft) O-NO 67 1,7 C 0,0 km/h (0 Bft)
14.10.2015 19:25 4,2 C 4,0 C 82 % 1012,6 hPa 0,0 mm 1,6 km/h (1 Bft) W-NW 292 1,4 C 4,1 km/h (1 Bft)
14.10.2015 19:30 4,2 C 3,9 C 84 % 1012,9 hPa 0,0 mm 1,3 km/h (1 Bft) O-NO 67 1,7 C 0,0 km/h (0 Bft)
14.10.2015 19:35 4,1 C 3,8 C 84 % 1012,9 hPa 0,0 mm 1,3 km/h (1 Bft) O-NO 67 1,6 C 10,6 km/h (2 Bft)
14.10.2015 19:40 4,0 C 3,7 C 84 % 1012,9 hPa 0,0 mm 2,8 km/h (1 Bft) O-NO 67 1,5 C 4,7 km/h (1 Bft)
14.10.2015 19:45 3,9 C 3,6 C 84 % 1012,9 hPa 0,7 mm 3,6 km/h (1 Bft) SO 135 1,4 C 3,1 km/h (1 Bft)
14.10.2015 19:50 3,8 C 3,5 C 84 % 1012,9 hPa 0,0 mm 1,8 km/h (1 Bft) SO 135 1,4 C 2,8 km/h (1 Bft)
14.10.2015 19:55 3,7 C 3,4 C 84 % 1012,9 hPa 0,0 mm 0,8 km/h (0 Bft) O-SO 112 1,3 C 0,0 km/h (0 Bft)
14.10.2015 20:00 3,6 C 3,3 C 85 % 1012,9 hPa 0,0 mm 0,3 km/h (0 Bft) NO 45 1,3 C 0,0 km/h (0 Bft)
14.10.2015 20:05 3,6 C 3,3 C 85 % 1012,9 hPa 0,0 mm 0,8 km/h (0 Bft) O-NO 67 1,3 C 3,9 km/h (1 Bft)
14.10.2015 20:10 3,6 C 3,3 C 85 % 1012,8 hPa 0,0 mm 2,1 km/h (1 Bft) O-NO 67 1,3 C 8,8 km/h (2 Bft)
14.10.2015 20:15 3,6 C 3,4 C 83 % 1012,8 hPa 0,7 mm 3,1 km/h (1 Bft) W-SW 247 1,0 C 4,7 km/h (1 Bft)
14.10.2015 20:20 3,6 C 3,4 C 86 % 1012,8 hPa 0,0 mm 3,1 km/h (1 Bft) N-NO 22 1,5 C 7,8 km/h (2 Bft)
14.10.2015 20:25 3,6 C 3,4 C 86 % 1012,8 hPa 0,0 mm 1,8 km/h (1 Bft) NO 45 1,5 C 0,0 km/h (0 Bft)
14.10.2015 20:30 3,6 C 3,4 C 86 % 1012,8 hPa 0,0 mm 3,6 km/h (1 Bft) N-NO 22 1,5 C 13,5 km/h (3 Bft)
14.10.2015 20:35 3,4 C 3,0 C 87 % 1012,8 hPa 0,0 mm 6,2 km/h (2 Bft) NO 45 1,4 C 7,8 km/h (2 Bft)
14.10.2015 20:40 3,4 C 3,0 C 87 % 1012,8 hPa 0,7 mm 5,7 km/h (1 Bft) SO 135 1,4 C 2,8 km/h (1 Bft)
14.10.2015 20:45 3,3 C 3,0 C 87 % 1012,8 hPa 0,0 mm 4,9 km/h (1 Bft) N-NO 22 1,3 C 7,0 km/h (2 Bft)
14.10.2015 20:50 3,3 C 3,0 C 87 % 1012,3 hPa 0,0 mm 3,9 km/h (1 Bft) NO 45 1,3 C 0,0 km/h (0 Bft)
14.10.2015 20:55 3,2 C 3,0 C 87 % 1012,3 hPa 0,0 mm 1,8 km/h (1 Bft) N-NW 337 1,2 C 0,0 km/h (0 Bft)
14.10.2015 21:00 3,2 C 3,0 C 87 % 1012,3 hPa 0,0 mm 0,8 km/h (0 Bft) O-NO 67 1,2 C 3,4 km/h (1 Bft)
14.10.2015 21:02 3,2 C 3,0 C 87 % 1012,3 hPa 0,0 mm 0,8 km/h (0 Bft) O-NO 67 1,2 C 3,4 km/h (1 Bft)
14.10.2015 21:05 3,2 C 2,9 C 87 % 1012,3 hPa 0,0 mm 1,6 km/h (1 Bft) O-SO 112 1,2 C 0,0 km/h (0 Bft)
14.10.2015 21:10 3,2 C 2,9 C 87 % 1012,8 hPa 0,7 mm 1,8 km/h (1 Bft) N-NO 22 1,2 C 7,8 km/h (2 Bft)
14.10.2015 21:15 3,2 C 2,9 C 87 % 1012,8 hPa 0,0 mm 2,6 km/h (1 Bft) O-SO 112 1,2 C 0,0 km/h (0 Bft)
14.10.2015 21:20 3,1 C 2,9 C 87 % 1012,8 hPa 0,0 mm 2,8 km/h (1 Bft) O-NO 67 1,2 C 6,2 km/h (2 Bft)
14.10.2015 21:25 3,1 C 2,9 C 88 % 1012,8 hPa 0,0 mm 3,6 km/h (1 Bft) NO 45 1,3 C 4,9 km/h (1 Bft)
14.10.2015 21:30 3,1 C 2,7 C 88 % 1012,8 hPa 0,0 mm 5,4 km/h (1 Bft) N-NO 22 1,3 C 5,4 km/h (1 Bft)
14.10.2015 21:35 3,0 C 2,8 C 88 % 1012,8 hPa 0,7 mm 3,9 km/h (1 Bft) O-SO 112 1,2 C 3,4 km/h (1 Bft)
14.10.2015 21:40 2,9 C 2,7 C 89 % 1012,8 hPa 0,0 mm 4,1 km/h (1 Bft) O-NO 67 1,3 C 2,6 km/h (1 Bft)
14.10.2015 21:45 2,8 C 2,6 C 88 % 1012,8 hPa 0,0 mm 3,9 km/h (1 Bft) O-NO 67 1,0 C 5,7 km/h (1 Bft)
14.10.2015 21:50 2,8 C 2,6 C 88 % 1012,8 hPa 0,7 mm 1,8 km/h (1 Bft) SO 135 1,0 C 0,0 km/h (0 Bft)
14.10.2015 21:55 2,7 C 2,5 C 89 % 1012,8 hPa 0,0 mm 1,8 km/h (1 Bft) O-SO 112 1,1 C 5,2 km/h (1 Bft)
14.10.2015 22:00 2,7 C 2,5 C 89 % 1012,8 hPa 0,0 mm 2,8 km/h (1 Bft) N-NO 22 1,1 C 6,5 km/h (2 Bft)
14.10.2015 22:05 2,6 C 2,2 C 89 % 1012,8 hPa 0,7 mm 5,4 km/h (1 Bft) O-SO 112 1,0 C 4,1 km/h (1 Bft)
14.10.2015 22:10 2,6 C 2,2 C 89 % 1012,8 hPa 0,0 mm 4,9 km/h (1 Bft) O-NO 67 1,0 C 5,2 km/h (1 Bft)
14.10.2015 22:15 2,5 C 2,2 C 89 % 1012,8 hPa 0,0 mm 4,7 km/h (1 Bft) O-NO 67 0,9 C 4,4 km/h (1 Bft)
14.10.2015 22:20 2,5 C 2,1 C 89 % 1012,8 hPa 0,0 mm 5,4 km/h (1 Bft) S 180 0,9 C 4,9 km/h (1 Bft)
14.10.2015 22:25 2,4 C 2,2 C 89 % 1012,8 hPa 0,0 mm 2,8 km/h (1 Bft) O-NO 67 0,8 C 0,0 km/h (0 Bft)
14.10.2015 22:30 2,4 C 2,2 C 89 % 1013,0 hPa 0,7 mm 2,3 km/h (1 Bft) O-NO 67 0,8 C 3,9 km/h (1 Bft)
14.10.2015 22:35 2,4 C 2,1 C 89 % 1013,0 hPa 0,0 mm 4,4 km/h (1 Bft) O-NO 67 0,8 C 6,5 km/h (2 Bft)
14.10.2015 22:40 2,3 C 2,1 C 89 % 1013,0 hPa 0,0 mm 4,1 km/h (1 Bft) O-NO 67 0,7 C 0,0 km/h (0 Bft)
14.10.2015 22:45 2,2 C 2,0 C 89 % 1013,0 hPa 0,0 mm 3,1 km/h (1 Bft) SO 135 0,6 C 0,0 km/h (0 Bft)
14.10.2015 22:50 2,1 C 1,9 C 89 % 1013,1 hPa 0,7 mm 2,3 km/h (1 Bft) SO 135 0,5 C 4,1 km/h (1 Bft)
14.10.2015 22:55 2,0 C 1,8 C 89 % 1013,1 hPa 0,0 mm 1,6 km/h (1 Bft) SO 135 0,4 C 5,7 km/h (1 Bft)
14.10.2015 23:00 1,9 C 1,7 C 86 % 1013,1 hPa 0,0 mm 2,3 km/h (1 Bft) SO 135 -0,2 C 4,4 km/h (1 Bft)
14.10.2015 23:05 1,9 C 1,7 C 90 % 1013,1 hPa 0,0 mm 1,6 km/h (1 Bft) O-SO 112 0,4 C 0,0 km/h (0 Bft)
14.10.2015 23:10 1,8 C 1,6 C 90 % 1013,2 hPa 0,7 mm 0,5 km/h (0 Bft) NO 45 0,3 C 0,0 km/h (0 Bft)
14.10.2015 23:15 1,6 C 1,4 C 90 % 1013,2 hPa 0,0 mm 0,0 km/h (0 Bft) S-SO 157 0,1 C 0,0 km/h (0 Bft)
14.10.2015 23:20 1,5 C 1,3 C 89 % 1013,2 hPa 0,0 mm 0,0 km/h (0 Bft) S 180 -0,1 C 0,0 km/h (0 Bft)
14.10.2015 23:25 1,4 C 1,2 C 89 % 1013,2 hPa 0,0 mm 0,5 km/h (0 Bft) S 180 -0,2 C 0,0 km/h (0 Bft)
14.10.2015 23:30 1,3 C 1,1 C 89 % 1013,1 hPa 0,0 mm 0,8 km/h (0 Bft) S-SO 157 -0,3 C 0,0 km/h (0 Bft)
14.10.2015 23:35 1,1 C 0,9 C 89 % 1013,1 hPa 0,0 mm 0,5 km/h (0 Bft) S-SO 157 -0,5 C 0,0 km/h (0 Bft)
14.10.2015 23:40 1,0 C 0,8 C 89 % 1013,1 hPa 0,7 mm 0,0 km/h (0 Bft) S-SO 157 -0,6 C 0,0 km/h (0 Bft)
14.10.2015 23:45 0,9 C 0,7 C 89 % 1013,1 hPa 0,0 mm 0,0 km/h (0 Bft) S 180 -0,7 C 0,0 km/h (0 Bft)
14.10.2015 23:50 0,8 C 0,6 C 89 % 1012,8 hPa 0,0 mm 0,0 km/h (0 Bft) S 180 -0,8 C 0,0 km/h (0 Bft)
14.10.2015 23:55 0,7 C 0,5 C 89 % 1012,8 hPa 0,0 mm 0,0 km/h (0 Bft) SO 135 -0,9 C 0,0 km/h (0 Bft)
_ Min-Zeit 23:55 23:55 13:40 17:25 - 23:55 - - 23:55 23:55
Minimum _ 0,7 C 0,5 C 73 % 1012,1 hPa - 0,0 km/h (0 Bft) - - -0,9 C 0,0 km/h (0 Bft)
_ Max-Zeit 00:00 13:25 07:45 03:05 23:40 01:30 - - 00:00 04:30
Maximum _ 6,6 C 9,5 C 93 % 1013,9 hPa 0,7 mm 9,8 km/h
W (2 Bft)
- - 5,4 C 29,3 km/h
W-SW (5 Bft)
Durchschnitt _ 3,8 C 4,2 C 86 % 1013,2 hPa #15,8 mm 2,7 km/h (1 Bft) O-NO - 1,6 C 3,9 km/h (1 Bft)